sensor_id;sensor_type;location;lat;lon;timestamp;P1;durP1;ratioP1;P2;durP2;ratioP2
65853;SDS011;52627;48.838;2.402;2024-02-26T00:01:35;8.70;;;4.90;;
65853;SDS011;52627;48.838;2.402;2024-02-26T00:04:02;11.90;;;4.70;;
65853;SDS011;52627;48.838;2.402;2024-02-26T00:06:30;7.60;;;4.30;;
65853;SDS011;52627;48.838;2.402;2024-02-26T00:08:58;9.40;;;4.30;;
65853;SDS011;52627;48.838;2.402;2024-02-26T00:11:26;12.40;;;4.60;;
65853;SDS011;52627;48.838;2.402;2024-02-26T00:13:54;7.90;;;4.20;;
65853;SDS011;52627;48.838;2.402;2024-02-26T00:16:21;7.50;;;3.80;;
65853;SDS011;52627;48.838;2.402;2024-02-26T00:18:49;6.60;;;3.90;;
65853;SDS011;52627;48.838;2.402;2024-02-26T00:21:17;9.40;;;4.30;;
65853;SDS011;52627;48.838;2.402;2024-02-26T00:23:45;8.40;;;4.40;;
65853;SDS011;52627;48.838;2.402;2024-02-26T00:26:12;7.10;;;4.10;;
65853;SDS011;52627;48.838;2.402;2024-02-26T00:28:40;7.50;;;3.80;;
65853;SDS011;52627;48.838;2.402;2024-02-26T00:31:07;12.30;;;4.20;;
65853;SDS011;52627;48.838;2.402;2024-02-26T00:33:35;9.30;;;3.70;;
65853;SDS011;52627;48.838;2.402;2024-02-26T00:36:03;7.80;;;3.40;;
65853;SDS011;52627;48.838;2.402;2024-02-26T00:38:31;7.10;;;3.90;;
65853;SDS011;52627;48.838;2.402;2024-02-26T00:40:59;9.70;;;3.80;;
65853;SDS011;52627;48.838;2.402;2024-02-26T00:43:26;9.20;;;3.40;;
65853;SDS011;52627;48.838;2.402;2024-02-26T00:45:54;7.20;;;3.70;;
65853;SDS011;52627;48.838;2.402;2024-02-26T00:48:21;8.20;;;3.90;;
65853;SDS011;52627;48.838;2.402;2024-02-26T00:50:49;10.20;;;4.10;;
65853;SDS011;52627;48.838;2.402;2024-02-26T00:53:17;7.50;;;3.40;;
65853;SDS011;52627;48.838;2.402;2024-02-26T00:55:44;9.70;;;3.70;;
65853;SDS011;52627;48.838;2.402;2024-02-26T00:58:12;10.60;;;4.40;;
65853;SDS011;52627;48.838;2.402;2024-02-26T01:00:39;12.10;;;3.90;;
65853;SDS011;52627;48.838;2.402;2024-02-26T01:03:07;9.30;;;4.20;;
65853;SDS011;52627;48.838;2.402;2024-02-26T01:05:35;10.90;;;4.00;;
65853;SDS011;52627;48.838;2.402;2024-02-26T01:08:04;7.60;;;3.70;;
65853;SDS011;52627;48.838;2.402;2024-02-26T01:10:31;7.20;;;3.70;;
65853;SDS011;52627;48.838;2.402;2024-02-26T01:12:59;8.80;;;3.60;;
65853;SDS011;52627;48.838;2.402;2024-02-26T01:15:28;10.30;;;3.90;;
65853;SDS011;52627;48.838;2.402;2024-02-26T01:17:55;7.60;;;3.30;;
65853;SDS011;52627;48.838;2.402;2024-02-26T01:20:23;7.40;;;3.60;;
65853;SDS011;52627;48.838;2.402;2024-02-26T01:22:50;9.80;;;3.10;;
65853;SDS011;52627;48.838;2.402;2024-02-26T01:25:18;8.70;;;3.70;;
65853;SDS011;52627;48.838;2.402;2024-02-26T01:27:45;7.00;;;3.30;;
65853;SDS011;52627;48.838;2.402;2024-02-26T01:30:13;8.40;;;3.40;;
65853;SDS011;52627;48.838;2.402;2024-02-26T01:32:43;10.60;;;4.00;;
65853;SDS011;52627;48.838;2.402;2024-02-26T01:35:11;11.00;;;3.40;;
65853;SDS011;52627;48.838;2.402;2024-02-26T01:37:39;12.10;;;3.80;;
65853;SDS011;52627;48.838;2.402;2024-02-26T01:40:08;11.20;;;3.30;;
65853;SDS011;52627;48.838;2.402;2024-02-26T01:42:39;10.30;;;3.20;;
65853;SDS011;52627;48.838;2.402;2024-02-26T01:45:14;9.00;;;3.10;;
65853;SDS011;52627;48.838;2.402;2024-02-26T01:47:52;9.20;;;2.70;;
65853;SDS011;52627;48.838;2.402;2024-02-26T01:50:21;13.40;;;3.20;;
65853;SDS011;52627;48.838;2.402;2024-02-26T01:52:50;8.80;;;3.10;;
65853;SDS011;52627;48.838;2.402;2024-02-26T01:55:19;9.60;;;2.50;;
65853;SDS011;52627;48.838;2.402;2024-02-26T01:57:48;10.70;;;2.90;;
65853;SDS011;52627;48.838;2.402;2024-02-26T02:00:17;11.00;;;2.80;;
65853;SDS011;52627;48.838;2.402;2024-02-26T02:02:46;11.20;;;3.30;;
65853;SDS011;52627;48.838;2.402;2024-02-26T02:05:16;10.10;;;2.50;;
65853;SDS011;52627;48.838;2.402;2024-02-26T02:07:47;11.50;;;2.70;;
65853;SDS011;52627;48.838;2.402;2024-02-26T02:10:16;10.80;;;2.90;;
65853;SDS011;52627;48.838;2.402;2024-02-26T02:12:51;14.40;;;2.80;;
65853;SDS011;52627;48.838;2.402;2024-02-26T02:15:19;14.10;;;3.40;;
65853;SDS011;52627;48.838;2.402;2024-02-26T02:17:48;9.30;;;2.30;;
65853;SDS011;52627;48.838;2.402;2024-02-26T02:20:17;9.80;;;2.80;;
65853;SDS011;52627;48.838;2.402;2024-02-26T02:22:46;11.50;;;2.60;;
65853;SDS011;52627;48.838;2.402;2024-02-26T02:25:14;13.10;;;2.80;;
65853;SDS011;52627;48.838;2.402;2024-02-26T02:27:42;12.20;;;2.80;;
65853;SDS011;52627;48.838;2.402;2024-02-26T02:30:11;11.20;;;3.00;;
65853;SDS011;52627;48.838;2.402;2024-02-26T02:32:40;10.70;;;2.50;;
65853;SDS011;52627;48.838;2.402;2024-02-26T02:35:10;11.10;;;2.70;;
65853;SDS011;52627;48.838;2.402;2024-02-26T02:37:38;13.20;;;3.20;;
65853;SDS011;52627;48.838;2.402;2024-02-26T02:40:06;13.00;;;3.50;;
65853;SDS011;52627;48.838;2.402;2024-02-26T02:42:34;10.70;;;3.50;;
65853;SDS011;52627;48.838;2.402;2024-02-26T02:45:02;11.10;;;2.50;;
65853;SDS011;52627;48.838;2.402;2024-02-26T02:47:29;13.70;;;3.00;;
65853;SDS011;52627;48.838;2.402;2024-02-26T02:49:57;14.20;;;2.90;;
65853;SDS011;52627;48.838;2.402;2024-02-26T02:52:24;12.90;;;3.40;;
65853;SDS011;52627;48.838;2.402;2024-02-26T02:54:52;13.90;;;4.00;;
65853;SDS011;52627;48.838;2.402;2024-02-26T02:57:19;11.80;;;2.50;;
65853;SDS011;52627;48.838;2.402;2024-02-26T02:59:47;10.50;;;3.10;;
65853;SDS011;52627;48.838;2.402;2024-02-26T03:02:14;10.50;;;2.70;;
65853;SDS011;52627;48.838;2.402;2024-02-26T03:04:42;13.30;;;2.40;;
65853;SDS011;52627;48.838;2.402;2024-02-26T03:07:10;15.60;;;3.20;;
65853;SDS011;52627;48.838;2.402;2024-02-26T03:09:37;15.10;;;3.50;;
65853;SDS011;52627;48.838;2.402;2024-02-26T03:12:05;11.60;;;2.50;;
65853;SDS011;52627;48.838;2.402;2024-02-26T03:14:32;12.10;;;2.40;;
65853;SDS011;52627;48.838;2.402;2024-02-26T03:17:00;11.70;;;2.40;;
65853;SDS011;52627;48.838;2.402;2024-02-26T03:19:28;12.20;;;2.70;;
65853;SDS011;52627;48.838;2.402;2024-02-26T03:21:56;11.80;;;2.60;;
65853;SDS011;52627;48.838;2.402;2024-02-26T03:24:23;13.30;;;2.40;;
65853;SDS011;52627;48.838;2.402;2024-02-26T03:26:51;11.50;;;3.30;;
65853;SDS011;52627;48.838;2.402;2024-02-26T03:29:19;14.70;;;2.80;;
65853;SDS011;52627;48.838;2.402;2024-02-26T03:31:47;12.40;;;3.80;;
65853;SDS011;52627;48.838;2.402;2024-02-26T03:34:14;16.70;;;3.50;;
65853;SDS011;52627;48.838;2.402;2024-02-26T03:36:42;12.20;;;2.80;;
65853;SDS011;52627;48.838;2.402;2024-02-26T03:39:10;13.90;;;3.10;;
65853;SDS011;52627;48.838;2.402;2024-02-26T03:41:38;13.30;;;3.20;;
65853;SDS011;52627;48.838;2.402;2024-02-26T03:44:05;13.20;;;2.60;;
65853;SDS011;52627;48.838;2.402;2024-02-26T03:46:33;13.90;;;2.90;;
65853;SDS011;52627;48.838;2.402;2024-02-26T03:49:00;16.00;;;3.00;;
65853;SDS011;52627;48.838;2.402;2024-02-26T03:51:28;9.30;;;2.70;;
65853;SDS011;52627;48.838;2.402;2024-02-26T03:53:59;11.70;;;2.60;;
65853;SDS011;52627;48.838;2.402;2024-02-26T03:56:27;14.70;;;3.00;;
65853;SDS011;52627;48.838;2.402;2024-02-26T03:58:54;13.60;;;3.10;;
65853;SDS011;52627;48.838;2.402;2024-02-26T04:01:22;16.30;;;2.50;;
65853;SDS011;52627;48.838;2.402;2024-02-26T04:03:50;10.60;;;2.40;;
65853;SDS011;52627;48.838;2.402;2024-02-26T04:06:17;14.60;;;3.20;;
65853;SDS011;52627;48.838;2.402;2024-02-26T04:08:47;10.50;;;2.30;;
65853;SDS011;52627;48.838;2.402;2024-02-26T04:11:14;17.70;;;3.80;;
65853;SDS011;52627;48.838;2.402;2024-02-26T04:13:45;14.00;;;2.60;;
65853;SDS011;52627;48.838;2.402;2024-02-26T04:16:19;11.60;;;2.30;;
65853;SDS011;52627;48.838;2.402;2024-02-26T04:18:47;18.50;;;3.10;;
65853;SDS011;52627;48.838;2.402;2024-02-26T04:21:15;12.20;;;2.30;;
65853;SDS011;52627;48.838;2.402;2024-02-26T04:23:42;11.80;;;2.20;;
65853;SDS011;52627;48.838;2.402;2024-02-26T04:26:10;10.40;;;2.20;;
65853;SDS011;52627;48.838;2.402;2024-02-26T04:28:37;13.50;;;2.80;;
65853;SDS011;52627;48.838;2.402;2024-02-26T04:31:05;13.90;;;2.20;;
65853;SDS011;52627;48.838;2.402;2024-02-26T04:33:34;9.10;;;2.00;;
65853;SDS011;52627;48.838;2.402;2024-02-26T04:36:02;13.90;;;2.60;;
65853;SDS011;52627;48.838;2.402;2024-02-26T04:38:31;17.00;;;2.80;;
65853;SDS011;52627;48.838;2.402;2024-02-26T04:40:58;13.60;;;2.70;;
65853;SDS011;52627;48.838;2.402;2024-02-26T04:43:26;8.90;;;2.00;;
65853;SDS011;52627;48.838;2.402;2024-02-26T04:45:53;11.60;;;2.40;;
65853;SDS011;52627;48.838;2.402;2024-02-26T04:48:21;13.70;;;2.10;;
65853;SDS011;52627;48.838;2.402;2024-02-26T04:50:50;14.70;;;2.30;;
65853;SDS011;52627;48.838;2.402;2024-02-26T04:53:18;13.00;;;2.00;;
65853;SDS011;52627;48.838;2.402;2024-02-26T04:55:45;11.50;;;2.40;;
65853;SDS011;52627;48.838;2.402;2024-02-26T04:58:13;8.70;;;2.30;;
65853;SDS011;52627;48.838;2.402;2024-02-26T05:00:40;15.20;;;2.50;;
65853;SDS011;52627;48.838;2.402;2024-02-26T05:03:08;13.90;;;2.50;;
65853;SDS011;52627;48.838;2.402;2024-02-26T05:05:40;14.40;;;2.30;;
65853;SDS011;52627;48.838;2.402;2024-02-26T05:08:08;11.20;;;2.30;;
65853;SDS011;52627;48.838;2.402;2024-02-26T05:10:37;13.70;;;2.60;;
65853;SDS011;52627;48.838;2.402;2024-02-26T05:13:08;16.10;;;2.40;;
65853;SDS011;52627;48.838;2.402;2024-02-26T05:15:36;10.40;;;2.40;;
65853;SDS011;52627;48.838;2.402;2024-02-26T05:18:03;12.50;;;2.70;;
65853;SDS011;52627;48.838;2.402;2024-02-26T05:20:32;13.00;;;2.50;;
65853;SDS011;52627;48.838;2.402;2024-02-26T05:23:02;10.30;;;2.40;;
65853;SDS011;52627;48.838;2.402;2024-02-26T05:25:31;11.70;;;3.10;;
65853;SDS011;52627;48.838;2.402;2024-02-26T05:27:58;13.40;;;3.00;;
65853;SDS011;52627;48.838;2.402;2024-02-26T05:30:26;14.80;;;2.60;;
65853;SDS011;52627;48.838;2.402;2024-02-26T05:32:57;18.40;;;3.60;;
65853;SDS011;52627;48.838;2.402;2024-02-26T05:35:25;17.70;;;3.40;;
65853;SDS011;52627;48.838;2.402;2024-02-26T05:37:53;18.50;;;3.30;;
65853;SDS011;52627;48.838;2.402;2024-02-26T05:40:21;14.20;;;3.00;;
65853;SDS011;52627;48.838;2.402;2024-02-26T05:42:48;14.00;;;3.10;;
65853;SDS011;52627;48.838;2.402;2024-02-26T05:45:16;18.90;;;3.20;;
65853;SDS011;52627;48.838;2.402;2024-02-26T05:47:44;15.10;;;3.30;;
65853;SDS011;52627;48.838;2.402;2024-02-26T05:50:12;15.60;;;3.50;;
65853;SDS011;52627;48.838;2.402;2024-02-26T05:52:40;13.90;;;3.10;;
65853;SDS011;52627;48.838;2.402;2024-02-26T05:55:08;14.10;;;4.20;;
65853;SDS011;52627;48.838;2.402;2024-02-26T05:57:36;13.80;;;3.10;;
65853;SDS011;52627;48.838;2.402;2024-02-26T06:00:04;16.20;;;3.30;;
65853;SDS011;52627;48.838;2.402;2024-02-26T06:02:32;13.30;;;2.80;;
65853;SDS011;52627;48.838;2.402;2024-02-26T06:04:59;16.10;;;3.30;;
65853;SDS011;52627;48.838;2.402;2024-02-26T06:07:27;16.30;;;3.20;;
65853;SDS011;52627;48.838;2.402;2024-02-26T06:09:54;15.70;;;3.10;;
65853;SDS011;52627;48.838;2.402;2024-02-26T06:12:22;18.10;;;3.20;;
65853;SDS011;52627;48.838;2.402;2024-02-26T06:14:49;12.30;;;2.70;;
65853;SDS011;52627;48.838;2.402;2024-02-26T06:17:17;14.10;;;3.30;;
65853;SDS011;52627;48.838;2.402;2024-02-26T06:19:44;19.00;;;3.70;;
65853;SDS011;52627;48.838;2.402;2024-02-26T06:22:12;22.90;;;3.60;;
65853;SDS011;52627;48.838;2.402;2024-02-26T06:24:39;13.50;;;2.80;;
65853;SDS011;52627;48.838;2.402;2024-02-26T06:27:07;12.00;;;2.70;;
65853;SDS011;52627;48.838;2.402;2024-02-26T06:29:35;13.70;;;3.90;;
65853;SDS011;52627;48.838;2.402;2024-02-26T06:32:03;14.90;;;3.00;;
65853;SDS011;52627;48.838;2.402;2024-02-26T06:34:31;19.30;;;3.50;;
65853;SDS011;52627;48.838;2.402;2024-02-26T06:36:59;17.70;;;3.40;;
65853;SDS011;52627;48.838;2.402;2024-02-26T06:39:26;18.40;;;3.20;;
65853;SDS011;52627;48.838;2.402;2024-02-26T06:41:54;13.70;;;2.70;;
65853;SDS011;52627;48.838;2.402;2024-02-26T06:44:27;18.80;;;3.00;;
65853;SDS011;52627;48.838;2.402;2024-02-26T06:47:01;14.80;;;3.10;;
65853;SDS011;52627;48.838;2.402;2024-02-26T06:49:29;19.60;;;3.90;;
65853;SDS011;52627;48.838;2.402;2024-02-26T06:51:57;17.00;;;2.80;;
65853;SDS011;52627;48.838;2.402;2024-02-26T06:54:24;15.90;;;3.40;;
65853;SDS011;52627;48.838;2.402;2024-02-26T06:56:52;16.80;;;3.90;;
65853;SDS011;52627;48.838;2.402;2024-02-26T06:59:19;16.80;;;2.80;;
65853;SDS011;52627;48.838;2.402;2024-02-26T07:01:47;9.80;;;2.80;;
65853;SDS011;52627;48.838;2.402;2024-02-26T07:04:15;14.90;;;2.90;;
65853;SDS011;52627;48.838;2.402;2024-02-26T07:06:42;11.60;;;2.60;;
65853;SDS011;52627;48.838;2.402;2024-02-26T07:09:11;15.40;;;3.10;;
65853;SDS011;52627;48.838;2.402;2024-02-26T07:11:39;17.00;;;3.40;;
65853;SDS011;52627;48.838;2.402;2024-02-26T07:14:12;12.50;;;2.90;;
65853;SDS011;52627;48.838;2.402;2024-02-26T07:16:39;16.40;;;3.40;;
65853;SDS011;52627;48.838;2.402;2024-02-26T07:19:07;17.50;;;3.60;;
65853;SDS011;52627;48.838;2.402;2024-02-26T07:21:35;15.20;;;3.10;;
65853;SDS011;52627;48.838;2.402;2024-02-26T07:24:02;13.30;;;3.50;;
65853;SDS011;52627;48.838;2.402;2024-02-26T07:26:30;13.40;;;3.70;;
65853;SDS011;52627;48.838;2.402;2024-02-26T07:28:58;17.50;;;3.40;;
65853;SDS011;52627;48.838;2.402;2024-02-26T07:31:26;12.70;;;3.70;;
65853;SDS011;52627;48.838;2.402;2024-02-26T07:33:53;13.50;;;4.10;;
65853;SDS011;52627;48.838;2.402;2024-02-26T07:36:21;13.20;;;3.30;;
65853;SDS011;52627;48.838;2.402;2024-02-26T07:38:49;11.70;;;3.20;;
65853;SDS011;52627;48.838;2.402;2024-02-26T07:41:16;15.40;;;3.40;;
65853;SDS011;52627;48.838;2.402;2024-02-26T07:43:44;12.30;;;3.40;;
65853;SDS011;52627;48.838;2.402;2024-02-26T07:46:12;14.60;;;3.90;;
65853;SDS011;52627;48.838;2.402;2024-02-26T07:48:40;15.10;;;3.70;;
65853;SDS011;52627;48.838;2.402;2024-02-26T07:51:12;18.40;;;3.90;;
65853;SDS011;52627;48.838;2.402;2024-02-26T07:53:41;18.80;;;3.90;;
65853;SDS011;52627;48.838;2.402;2024-02-26T07:56:09;15.30;;;3.90;;
65853;SDS011;52627;48.838;2.402;2024-02-26T07:58:36;17.00;;;4.80;;
65853;SDS011;52627;48.838;2.402;2024-02-26T08:01:04;12.70;;;3.60;;
65853;SDS011;52627;48.838;2.402;2024-02-26T08:03:31;16.80;;;3.90;;
65853;SDS011;52627;48.838;2.402;2024-02-26T08:05:59;13.20;;;4.00;;
65853;SDS011;52627;48.838;2.402;2024-02-26T08:08:27;16.00;;;3.30;;
65853;SDS011;52627;48.838;2.402;2024-02-26T08:10:54;13.90;;;3.80;;
65853;SDS011;52627;48.838;2.402;2024-02-26T08:13:22;14.80;;;3.30;;
65853;SDS011;52627;48.838;2.402;2024-02-26T08:15:50;14.50;;;3.50;;
65853;SDS011;52627;48.838;2.402;2024-02-26T08:18:17;12.10;;;3.30;;
65853;SDS011;52627;48.838;2.402;2024-02-26T08:20:46;12.30;;;3.00;;
65853;SDS011;52627;48.838;2.402;2024-02-26T08:23:17;17.90;;;3.70;;
65853;SDS011;52627;48.838;2.402;2024-02-26T08:25:45;16.00;;;4.90;;
65853;SDS011;52627;48.838;2.402;2024-02-26T08:28:12;14.00;;;3.90;;
65853;SDS011;52627;48.838;2.402;2024-02-26T08:30:41;19.90;;;3.60;;
65853;SDS011;52627;48.838;2.402;2024-02-26T08:33:08;16.70;;;3.70;;
65853;SDS011;52627;48.838;2.402;2024-02-26T08:35:37;14.40;;;3.60;;
65853;SDS011;52627;48.838;2.402;2024-02-26T08:38:05;11.60;;;3.40;;
65853;SDS011;52627;48.838;2.402;2024-02-26T08:40:32;19.90;;;3.80;;
65853;SDS011;52627;48.838;2.402;2024-02-26T08:42:59;10.70;;;3.50;;
65853;SDS011;52627;48.838;2.402;2024-02-26T08:45:27;14.80;;;3.50;;
65853;SDS011;52627;48.838;2.402;2024-02-26T08:47:57;14.60;;;3.90;;
65853;SDS011;52627;48.838;2.402;2024-02-26T08:50:26;13.00;;;3.50;;
65853;SDS011;52627;48.838;2.402;2024-02-26T08:52:54;11.20;;;3.30;;
65853;SDS011;52627;48.838;2.402;2024-02-26T08:55:21;11.60;;;4.30;;
65853;SDS011;52627;48.838;2.402;2024-02-26T08:57:49;13.90;;;3.50;;
65853;SDS011;52627;48.838;2.402;2024-02-26T09:00:17;14.10;;;3.10;;
65853;SDS011;52627;48.838;2.402;2024-02-26T09:02:48;12.60;;;3.00;;
65853;SDS011;52627;48.838;2.402;2024-02-26T09:05:17;8.10;;;3.00;;
65853;SDS011;52627;48.838;2.402;2024-02-26T09:07:44;10.20;;;3.00;;
65853;SDS011;52627;48.838;2.402;2024-02-26T09:10:13;11.70;;;3.40;;
65853;SDS011;52627;48.838;2.402;2024-02-26T09:12:41;13.50;;;3.30;;
65853;SDS011;52627;48.838;2.402;2024-02-26T09:15:09;9.00;;;3.50;;
65853;SDS011;52627;48.838;2.402;2024-02-26T09:17:37;13.60;;;4.20;;
65853;SDS011;52627;48.838;2.402;2024-02-26T09:20:05;13.20;;;3.70;;
65853;SDS011;52627;48.838;2.402;2024-02-26T09:22:33;13.30;;;3.40;;
65853;SDS011;52627;48.838;2.402;2024-02-26T09:25:02;12.40;;;3.50;;
65853;SDS011;52627;48.838;2.402;2024-02-26T09:27:30;9.40;;;3.10;;
65853;SDS011;52627;48.838;2.402;2024-02-26T09:29:58;12.90;;;3.60;;
65853;SDS011;52627;48.838;2.402;2024-02-26T09:32:25;8.90;;;2.80;;
65853;SDS011;52627;48.838;2.402;2024-02-26T09:34:53;12.30;;;3.10;;
65853;SDS011;52627;48.838;2.402;2024-02-26T09:37:21;11.40;;;4.90;;
65853;SDS011;52627;48.838;2.402;2024-02-26T09:39:48;8.00;;;3.60;;
65853;SDS011;52627;48.838;2.402;2024-02-26T09:42:18;10.70;;;3.60;;
65853;SDS011;52627;48.838;2.402;2024-02-26T09:44:51;11.60;;;3.70;;
65853;SDS011;52627;48.838;2.402;2024-02-26T09:47:21;9.90;;;3.30;;
65853;SDS011;52627;48.838;2.402;2024-02-26T09:49:51;11.50;;;3.40;;
65853;SDS011;52627;48.838;2.402;2024-02-26T09:52:21;11.10;;;3.50;;
65853;SDS011;52627;48.838;2.402;2024-02-26T09:54:51;10.60;;;3.10;;
65853;SDS011;52627;48.838;2.402;2024-02-26T09:57:18;12.80;;;2.90;;
65853;SDS011;52627;48.838;2.402;2024-02-26T09:59:48;12.90;;;3.60;;
65853;SDS011;52627;48.838;2.402;2024-02-26T10:02:17;11.90;;;3.20;;
65853;SDS011;52627;48.838;2.402;2024-02-26T10:04:47;13.00;;;3.80;;
65853;SDS011;52627;48.838;2.402;2024-02-26T10:07:18;8.30;;;2.70;;
65853;SDS011;52627;48.838;2.402;2024-02-26T10:09:46;7.20;;;2.70;;
65853;SDS011;52627;48.838;2.402;2024-02-26T10:12:15;6.30;;;2.50;;
65853;SDS011;52627;48.838;2.402;2024-02-26T10:14:44;13.10;;;3.20;;
65853;SDS011;52627;48.838;2.402;2024-02-26T10:17:12;8.40;;;2.60;;
65853;SDS011;52627;48.838;2.402;2024-02-26T10:19:40;7.40;;;2.50;;
65853;SDS011;52627;48.838;2.402;2024-02-26T10:22:08;6.80;;;2.30;;
65853;SDS011;52627;48.838;2.402;2024-02-26T10:24:36;11.70;;;3.40;;
65853;SDS011;52627;48.838;2.402;2024-02-26T10:27:04;7.80;;;2.70;;
65853;SDS011;52627;48.838;2.402;2024-02-26T10:29:32;8.20;;;2.30;;
65853;SDS011;52627;48.838;2.402;2024-02-26T10:32:00;6.30;;;1.90;;
65853;SDS011;52627;48.838;2.402;2024-02-26T10:34:28;5.80;;;1.80;;
65853;SDS011;52627;48.838;2.402;2024-02-26T10:36:56;8.10;;;1.90;;
65853;SDS011;52627;48.838;2.402;2024-02-26T10:39:24;7.80;;;2.10;;
65853;SDS011;52627;48.838;2.402;2024-02-26T10:41:51;4.50;;;1.50;;
65853;SDS011;52627;48.838;2.402;2024-02-26T10:44:20;4.90;;;1.50;;
65853;SDS011;52627;48.838;2.402;2024-02-26T10:46:47;6.00;;;1.60;;
65853;SDS011;52627;48.838;2.402;2024-02-26T10:49:17;4.60;;;1.40;;
65853;SDS011;52627;48.838;2.402;2024-02-26T10:54:24;5.40;;;1.80;;
65853;SDS011;52627;48.838;2.402;2024-02-26T10:56:56;4.30;;;1.70;;
65853;SDS011;52627;48.838;2.402;2024-02-26T10:59:25;4.60;;;1.70;;
65853;SDS011;52627;48.838;2.402;2024-02-26T11:01:54;5.20;;;1.60;;
65853;SDS011;52627;48.838;2.402;2024-02-26T11:04:23;5.60;;;2.00;;
65853;SDS011;52627;48.838;2.402;2024-02-26T11:06:54;3.50;;;1.40;;
65853;SDS011;52627;48.838;2.402;2024-02-26T11:09:24;4.70;;;1.40;;
65853;SDS011;52627;48.838;2.402;2024-02-26T11:11:53;5.00;;;1.90;;
65853;SDS011;52627;48.838;2.402;2024-02-26T11:14:23;3.60;;;1.40;;
65853;SDS011;52627;48.838;2.402;2024-02-26T11:16:54;5.30;;;1.30;;
65853;SDS011;52627;48.838;2.402;2024-02-26T11:19:24;5.00;;;1.70;;
65853;SDS011;52627;48.838;2.402;2024-02-26T11:21:53;4.50;;;1.80;;
65853;SDS011;52627;48.838;2.402;2024-02-26T11:24:20;5.20;;;1.20;;
65853;SDS011;52627;48.838;2.402;2024-02-26T11:26:53;3.90;;;1.40;;
65853;SDS011;52627;48.838;2.402;2024-02-26T11:29:34;4.00;;;1.60;;
65853;SDS011;52627;48.838;2.402;2024-02-26T11:32:06;5.60;;;1.40;;
65853;SDS011;52627;48.838;2.402;2024-02-26T11:34:34;4.50;;;1.60;;
65853;SDS011;52627;48.838;2.402;2024-02-26T11:37:14;5.20;;;1.70;;
65853;SDS011;52627;48.838;2.402;2024-02-26T11:39:45;3.80;;;1.70;;
65853;SDS011;52627;48.838;2.402;2024-02-26T11:42:16;3.10;;;1.50;;
65853;SDS011;52627;48.838;2.402;2024-02-26T11:44:44;5.90;;;1.60;;
65853;SDS011;52627;48.838;2.402;2024-02-26T11:47:19;4.80;;;1.60;;
65853;SDS011;52627;48.838;2.402;2024-02-26T11:49:49;4.30;;;1.90;;
65853;SDS011;52627;48.838;2.402;2024-02-26T11:52:17;3.60;;;1.70;;
65853;SDS011;52627;48.838;2.402;2024-02-26T11:54:49;5.00;;;2.20;;
65853;SDS011;52627;48.838;2.402;2024-02-26T11:57:24;5.30;;;2.50;;
65853;SDS011;52627;48.838;2.402;2024-02-26T12:00:03;4.70;;;2.00;;
65853;SDS011;52627;48.838;2.402;2024-02-26T12:05:21;5.10;;;1.90;;
65853;SDS011;52627;48.838;2.402;2024-02-26T12:08:14;5.10;;;2.20;;
65853;SDS011;52627;48.838;2.402;2024-02-26T12:10:44;4.80;;;2.10;;
65853;SDS011;52627;48.838;2.402;2024-02-26T12:13:15;5.10;;;1.90;;
65853;SDS011;52627;48.838;2.402;2024-02-26T12:15:56;4.70;;;2.10;;
65853;SDS011;52627;48.838;2.402;2024-02-26T12:18:26;4.10;;;2.00;;
65853;SDS011;52627;48.838;2.402;2024-02-26T12:21:03;4.50;;;2.50;;
65853;SDS011;52627;48.838;2.402;2024-02-26T12:23:32;6.00;;;2.20;;
65853;SDS011;52627;48.838;2.402;2024-02-26T12:26:00;4.30;;;2.20;;
65853;SDS011;52627;48.838;2.402;2024-02-26T12:28:33;5.20;;;2.30;;
65853;SDS011;52627;48.838;2.402;2024-02-26T12:31:01;4.00;;;2.20;;
65853;SDS011;52627;48.838;2.402;2024-02-26T12:33:30;5.50;;;2.10;;
65853;SDS011;52627;48.838;2.402;2024-02-26T12:35:58;5.20;;;2.10;;
65853;SDS011;52627;48.838;2.402;2024-02-26T12:38:27;4.90;;;2.20;;
65853;SDS011;52627;48.838;2.402;2024-02-26T12:40:55;3.20;;;1.80;;
65853;SDS011;52627;48.838;2.402;2024-02-26T12:43:22;4.10;;;1.80;;
65853;SDS011;52627;48.838;2.402;2024-02-26T12:45:50;3.60;;;1.60;;
65853;SDS011;52627;48.838;2.402;2024-02-26T12:48:17;3.00;;;1.60;;
65853;SDS011;52627;48.838;2.402;2024-02-26T12:50:46;3.70;;;1.90;;
65853;SDS011;52627;48.838;2.402;2024-02-26T12:53:17;3.10;;;1.50;;
65853;SDS011;52627;48.838;2.402;2024-02-26T12:55:45;3.60;;;1.60;;
65853;SDS011;52627;48.838;2.402;2024-02-26T12:58:13;4.00;;;2.00;;
65853;SDS011;52627;48.838;2.402;2024-02-26T13:00:41;4.40;;;1.90;;
65853;SDS011;52627;48.838;2.402;2024-02-26T13:03:09;2.90;;;1.70;;
65853;SDS011;52627;48.838;2.402;2024-02-26T13:05:37;2.60;;;1.50;;
65853;SDS011;52627;48.838;2.402;2024-02-26T13:08:06;4.60;;;1.70;;
65853;SDS011;52627;48.838;2.402;2024-02-26T13:10:36;4.40;;;1.70;;
65853;SDS011;52627;48.838;2.402;2024-02-26T13:13:05;2.90;;;1.50;;
65853;SDS011;52627;48.838;2.402;2024-02-26T13:15:32;4.10;;;1.50;;
65853;SDS011;52627;48.838;2.402;2024-02-26T13:18:09;3.20;;;1.30;;
65853;SDS011;52627;48.838;2.402;2024-02-26T13:20:38;3.80;;;1.90;;
65853;SDS011;52627;48.838;2.402;2024-02-26T13:23:13;3.50;;;2.20;;
65853;SDS011;52627;48.838;2.402;2024-02-26T13:25:41;4.60;;;2.00;;
65853;SDS011;52627;48.838;2.402;2024-02-26T13:28:17;4.20;;;2.00;;
65853;SDS011;52627;48.838;2.402;2024-02-26T13:30:55;3.00;;;1.50;;
65853;SDS011;52627;48.838;2.402;2024-02-26T13:33:25;4.00;;;1.80;;
65853;SDS011;52627;48.838;2.402;2024-02-26T13:35:58;3.50;;;1.80;;
65853;SDS011;52627;48.838;2.402;2024-02-26T13:38:27;3.40;;;1.70;;
65853;SDS011;52627;48.838;2.402;2024-02-26T13:40:58;3.10;;;1.60;;
65853;SDS011;52627;48.838;2.402;2024-02-26T13:43:25;3.10;;;1.80;;
65853;SDS011;52627;48.838;2.402;2024-02-26T13:45:53;4.30;;;1.60;;
65853;SDS011;52627;48.838;2.402;2024-02-26T13:48:20;2.00;;;1.10;;
65853;SDS011;52627;48.838;2.402;2024-02-26T13:50:48;3.90;;;1.50;;
65853;SDS011;52627;48.838;2.402;2024-02-26T13:53:16;3.40;;;1.60;;
65853;SDS011;52627;48.838;2.402;2024-02-26T13:55:44;2.80;;;1.30;;
65853;SDS011;52627;48.838;2.402;2024-02-26T13:58:13;3.20;;;1.80;;
65853;SDS011;52627;48.838;2.402;2024-02-26T14:00:41;4.90;;;1.80;;
65853;SDS011;52627;48.838;2.402;2024-02-26T14:03:10;2.60;;;1.30;;
65853;SDS011;52627;48.838;2.402;2024-02-26T14:05:38;2.90;;;1.40;;
65853;SDS011;52627;48.838;2.402;2024-02-26T14:08:06;3.70;;;1.60;;
65853;SDS011;52627;48.838;2.402;2024-02-26T14:10:34;3.10;;;1.40;;
65853;SDS011;52627;48.838;2.402;2024-02-26T14:13:01;2.60;;;1.30;;
65853;SDS011;52627;48.838;2.402;2024-02-26T14:15:29;3.80;;;1.30;;
65853;SDS011;52627;48.838;2.402;2024-02-26T14:17:59;2.60;;;1.40;;
65853;SDS011;52627;48.838;2.402;2024-02-26T14:20:27;2.80;;;1.50;;
65853;SDS011;52627;48.838;2.402;2024-02-26T14:22:54;3.10;;;1.40;;
65853;SDS011;52627;48.838;2.402;2024-02-26T14:25:22;2.60;;;1.40;;
65853;SDS011;52627;48.838;2.402;2024-02-26T14:27:50;2.70;;;1.40;;
65853;SDS011;52627;48.838;2.402;2024-02-26T14:30:17;2.10;;;1.30;;
65853;SDS011;52627;48.838;2.402;2024-02-26T14:32:45;3.00;;;1.70;;
65853;SDS011;52627;48.838;2.402;2024-02-26T14:35:13;3.30;;;1.70;;
65853;SDS011;52627;48.838;2.402;2024-02-26T14:37:44;2.90;;;1.50;;
65853;SDS011;52627;48.838;2.402;2024-02-26T14:40:16;3.30;;;1.60;;
65853;SDS011;52627;48.838;2.402;2024-02-26T14:42:44;2.70;;;1.70;;
65853;SDS011;52627;48.838;2.402;2024-02-26T14:45:12;4.90;;;1.80;;
65853;SDS011;52627;48.838;2.402;2024-02-26T14:47:40;3.00;;;1.60;;
65853;SDS011;52627;48.838;2.402;2024-02-26T14:50:08;3.10;;;1.60;;
65853;SDS011;52627;48.838;2.402;2024-02-26T14:52:36;3.00;;;1.40;;
65853;SDS011;52627;48.838;2.402;2024-02-26T14:55:04;3.60;;;1.50;;